Time;durP1;ratioP1;P1;durP2;ratioP2;P2;SDS_P1;SDS_P2;PMS_P1;PMS_P2;Temp;Humidity;BMP_temperature;BMP_pressure;BME280_temperature;BME280_humidity;BME280_pressure;Samples;Min_cycle;Max_cycle;Signal;HPM_P1;HPM_P2
2023/12/24 00:02:18;;;;;;;0.00;0.00;;;12.60;41.90;;;;;;20971213;28;20027;-59
2023/12/24 00:12:19;;;;;;;0.00;0.00;;;12.60;42.90;;;;;;21031487;28;20024;-59
2023/12/24 00:22:21;;;;;;;0.00;0.00;;;12.40;43.50;;;;;;21042479;28;20102;-59
2023/12/24 00:32:24;;;;;;;0.00;0.00;;;11.80;45.10;;;;;;21045712;28;20056;-52
2023/12/24 00:42:27;;;;;;;0.00;0.00;;;10.00;46.90;;;;;;21039991;28;20036;-48
2023/12/24 00:52:29;;;;;;;0.00;0.00;;;9.30;49.30;;;;;;21045332;28;20037;-49
2023/12/24 01:02:34;;;;;;;0.00;0.00;;;9.70;46.30;;;;;;21053231;28;20396;-48
2023/12/24 01:12:37;;;;;;;0.00;0.00;;;11.10;46.70;;;;;;21039773;28;20044;-49
2023/12/24 01:22:40;;;;;;;0.00;0.00;;;11.50;44.70;;;;;;21050194;28;20497;-58
2023/12/24 01:32:45;;;;;;;0.00;0.00;;;11.80;44.10;;;;;;21067111;28;20032;-60
2023/12/24 01:42:47;;;;;;;0.00;0.00;;;12.40;42.50;;;;;;21035352;28;20032;-59
2023/12/24 01:52:49;;;;;;;0.08;0.00;;;12.00;44.20;;;;;;21057602;28;20031;-52
2023/12/24 02:02:51;;;;;;;0.00;0.00;;;10.20;48.20;;;;;;21047122;28;20105;-59
2023/12/24 02:12:53;;;;;;;0.00;0.00;;;9.00;48.80;;;;;;21037928;28;20040;-60
2023/12/24 02:22:57;;;;;;;0.05;0.00;;;8.10;51.50;;;;;;21048971;28;20044;-48
2023/12/24 02:33:01;;;;;;;0.22;0.00;;;7.40;52.40;;;;;;21053824;28;20378;-50
2023/12/24 02:43:04;;;;;;;0.00;0.00;;;7.60;52.20;;;;;;21046939;28;20028;-60
2023/12/24 02:53:05;;;;;;;0.08;0.00;;;8.20;50.20;;;;;;21028000;28;20043;-58
2023/12/24 03:03:07;;;;;;;0.20;0.00;;;8.70;49.10;;;;;;21061620;28;20089;-61
2023/12/24 03:13:09;;;;;;;0.00;0.00;;;9.40;46.60;;;;;;20789279;28;20129;-57
2023/12/24 03:23:11;;;;;;;0.00;0.00;;;10.40;47.20;;;;;;20791113;28;20073;-47
2023/12/24 03:33:13;;;;;;;0.08;0.00;;;8.60;51.50;;;;;;20762063;28;20758;-57
2023/12/24 03:43:15;;;;;;;0.00;0.00;;;7.20;54.40;;;;;;20985048;28;20502;-58
2023/12/24 03:53:18;;;;;;;0.20;0.00;;;6.20;56.70;;;;;;21027164;28;20094;-58
2023/12/24 04:03:21;;;;;;;0.00;0.00;;;5.50;59.50;;;;;;21018943;28;20039;-58
2023/12/24 04:13:23;;;;;;;0.00;0.00;;;5.50;58.40;;;;;;21022174;28;20024;-54
2023/12/24 04:23:25;;;;;;;0.40;0.00;;;5.80;57.40;;;;;;21031056;28;20048;-47
2023/12/24 04:33:27;;;;;;;0.00;0.00;;;5.90;55.80;;;;;;21033845;28;20074;-58
2023/12/24 04:43:29;;;;;;;0.25;0.00;;;5.90;57.30;;;;;;21023737;28;20784;-59
2023/12/24 04:53:30;;;;;;;0.00;0.00;;;6.30;55.10;;;;;;20992809;28;20032;-59
2023/12/24 05:03:34;;;;;;;0.10;0.00;;;6.10;56.60;;;;;;21050164;28;20032;-58
2023/12/24 05:13:36;;;;;;;0.00;0.00;;;6.40;54.50;;;;;;20994320;28;20052;-58
2023/12/24 05:23:38;;;;;;;0.00;0.00;;;6.40;54.20;;;;;;20983801;28;20064;-59
2023/12/24 05:33:39;;;;;;;0.00;0.00;;;6.00;56.30;;;;;;20973279;28;20029;-56
2023/12/24 05:43:41;;;;;;;0.00;0.00;;;5.60;55.70;;;;;;20978552;28;20031;-59
2023/12/24 05:53:43;;;;;;;0.00;0.00;;;5.90;55.70;;;;;;20979767;28;20032;-58
2023/12/24 06:03:48;;;;;;;0.00;0.00;;;5.70;56.00;;;;;;20989287;28;20405;-53
2023/12/24 06:13:53;;;;;;;0.20;0.00;;;5.60;55.90;;;;;;20980886;28;20025;-59
2023/12/24 06:23:54;;;;;;;0.00;0.00;;;6.20;55.00;;;;;;20973914;28;20284;-61
2023/12/24 06:33:56;;;;;;;0.00;0.00;;;6.90;55.20;;;;;;20976759;28;20036;-61
2023/12/24 06:43:58;;;;;;;0.00;0.00;;;7.00;55.60;;;;;;20976587;28;20561;-61
2023/12/24 06:54:03;;;;;;;0.00;0.00;;;7.30;57.20;;;;;;20972669;28;20058;-61
2023/12/24 07:04:11;;;;;;;0.00;0.00;;;7.10;57.30;;;;;;20973789;28;20032;-63
2023/12/24 07:14:13;;;;;;;0.00;0.00;;;7.50;55.30;;;;;;20977650;28;20048;-58
2023/12/24 07:24:15;;;;;;;0.03;0.00;;;7.80;55.20;;;;;;20981542;28;20068;-61
2023/12/24 07:34:17;;;;;;;0.00;0.00;;;8.80;56.20;;;;;;21014389;28;20048;-61
2023/12/24 07:44:23;;;;;;;0.00;0.00;;;8.50;53.30;;;;;;20975356;28;20028;-62
2023/12/24 07:54:25;;;;;;;3.47;0.00;;;8.80;55.60;;;;;;21005222;28;20040;-57
2023/12/24 08:04:27;;;;;;;0.10;0.00;;;9.40;55.40;;;;;;20995198;28;20036;-47
2023/12/24 08:14:28;;;;;;;0.00;0.00;;;10.20;51.20;;;;;;20952109;28;20110;-48
2023/12/24 08:24:31;;;;;;;0.00;0.00;;;10.60;53.50;;;;;;20993030;28;20111;-54
2023/12/24 08:34:33;;;;;;;0.10;0.00;;;10.70;56.20;;;;;;20969051;28;20039;-50
2023/12/24 08:44:35;;;;;;;0.10;0.00;;;11.40;54.60;;;;;;20972818;28;20732;-45
2023/12/24 08:54:37;;;;;;;0.00;0.00;;;11.90;50.80;;;;;;20964522;28;20039;-56
2023/12/24 09:04:39;;;;;;;0.52;0.00;;;12.60;54.50;;;;;;20974563;28;20060;-50
2023/12/24 09:14:44;;;;;;;0.10;0.00;;;13.40;51.90;;;;;;20943772;28;20025;-49
2023/12/24 09:24:46;;;;;;;0.10;0.10;;;14.00;48.70;;;;;;20955527;28;20413;-52
2023/12/24 09:34:48;;;;;;;0.00;0.00;;;14.20;47.70;;;;;;20967314;28;20036;-53
2023/12/24 09:44:52;;;;;;;0.10;0.00;;;14.50;46.40;;;;;;20968040;28;20474;-55
2023/12/24 09:54:55;;;;;;;1.55;0.00;;;14.70;49.00;;;;;;21006024;28;20024;-48
2023/12/24 10:05:00;;;;;;;0.00;0.00;;;15.40;48.30;;;;;;21063370;28;20389;-51
2023/12/24 10:15:02;;;;;;;0.43;0.10;;;16.00;49.70;;;;;;20990307;28;20032;-56
2023/12/24 10:25:07;;;;;;;0.00;0.00;;;16.50;48.80;;;;;;20989008;28;20048;-57
2023/12/24 10:35:09;;;;;;;0.00;0.00;;;17.00;49.90;;;;;;20966425;28;20093;-49
2023/12/24 10:45:11;;;;;;;0.00;0.00;;;17.20;48.80;;;;;;20983602;28;20090;-51
2023/12/24 10:55:14;;;;;;;0.35;0.10;;;17.40;48.00;;;;;;21012381;28;20096;-48
2023/12/24 11:05:42;;;;;;;0.40;0.10;;;17.30;49.00;;;;;;20980221;28;20029;-52
2023/12/24 11:15:45;;;;;;;0.80;0.20;;;17.20;49.70;;;;;;21008739;28;20025;-53
2023/12/24 11:25:50;;;;;;;0.85;0.30;;;17.40;50.20;;;;;;20991151;28;20109;-52
2023/12/24 11:35:53;;;;;;;0.10;0.00;;;17.20;50.30;;;;;;20981476;28;20021;-50
2023/12/24 11:45:56;;;;;;;0.30;0.20;;;17.00;46.40;;;;;;20969680;28;20197;-49
2023/12/24 11:56:15;;;;;;;0.40;0.30;;;17.00;49.20;;;;;;20966884;28;20075;-52
2023/12/24 12:06:17;;;;;;;1.40;0.57;;;17.20;49.20;;;;;;20964556;28;20056;-51
2023/12/24 12:16:19;;;;;;;0.70;0.40;;;17.00;50.90;;;;;;20970422;28;20037;-51
2023/12/24 12:26:21;;;;;;;1.05;0.30;;;17.20;50.40;;;;;;20962104;28;20049;-58
2023/12/24 12:36:22;;;;;;;1.38;0.77;;;17.30;51.50;;;;;;20954253;28;20041;-53
2023/12/24 12:46:25;;;;;;;2.28;1.10;;;17.90;52.20;;;;;;20977360;28;20032;-53
2023/12/24 12:56:30;;;;;;;1.10;0.75;;;18.30;53.60;;;;;;20945568;28;20036;-51
2023/12/24 13:06:32;;;;;;;3.00;1.63;;;18.30;51.50;;;;;;20962522;28;20470;-57
2023/12/24 13:16:34;;;;;;;1.77;1.10;;;18.30;55.90;;;;;;20972689;28;20029;-56
2023/12/24 13:26:37;;;;;;;1.40;0.80;;;17.70;51.70;;;;;;20918678;28;20080;-47
2023/12/24 13:36:40;;;;;;;2.58;1.35;;;17.10;55.90;;;;;;20889295;28;20059;-51
2023/12/24 13:46:42;;;;;;;2.38;1.60;;;17.30;56.80;;;;;;20954156;28;20098;-50
2023/12/24 13:56:44;;;;;;;1.80;1.00;;;17.00;58.80;;;;;;20956092;28;20039;-49
2023/12/24 14:06:45;;;;;;;0.63;0.50;;;16.70;56.50;;;;;;20976226;28;20027;-49
2023/12/24 14:16:50;;;;;;;6.28;1.58;;;16.20;54.60;;;;;;20943176;28;20040;-51
2023/12/24 14:26:53;;;;;;;1.38;0.90;;;15.90;56.00;;;;;;20951549;28;20040;-49
2023/12/24 14:36:54;;;;;;;1.67;0.82;;;15.00;56.30;;;;;;20948315;28;20042;-50
2023/12/24 14:46:56;;;;;;;1.90;1.10;;;14.40;55.80;;;;;;20906389;28;20047;-50
2023/12/24 14:56:58;;;;;;;0.80;0.40;;;13.80;59.00;;;;;;20951693;28;20032;-54
2023/12/24 15:07:00;;;;;;;0.20;0.10;;;13.80;60.10;;;;;;20951403;28;20040;-50
2023/12/24 15:17:02;;;;;;;0.68;0.10;;;13.70;54.80;;;;;;20934813;28;20541;-49
2023/12/24 15:27:03;;;;;;;0.10;0.00;;;14.20;55.70;;;;;;20921345;28;20044;-50
2023/12/24 15:37:05;;;;;;;0.08;0.00;;;13.90;54.40;;;;;;20873032;28;20067;-50
2023/12/24 15:47:07;;;;;;;0.60;0.10;;;13.80;54.40;;;;;;20847441;28;20163;-48
2023/12/24 15:57:09;;;;;;;0.20;0.10;;;13.80;55.20;;;;;;20960480;28;20101;-48
2023/12/24 16:07:11;;;;;;;0.00;0.00;;;13.20;56.50;;;;;;20946633;28;20032;-47
2023/12/24 16:17:13;;;;;;;0.10;0.00;;;12.90;56.50;;;;;;20890756;28;20556;-49
2023/12/24 16:27:15;;;;;;;0.40;0.10;;;13.00;56.70;;;;;;20978862;28;20055;-57
2023/12/24 16:37:22;;;;;;;0.00;0.00;;;12.70;57.20;;;;;;20984551;28;20089;-46
2023/12/24 16:47:24;;;;;;;0.10;0.00;;;12.90;56.60;;;;;;20963663;28;20059;-49
2023/12/24 16:57:26;;;;;;;0.10;0.00;;;14.00;55.20;;;;;;20975300;28;20040;-51
2023/12/24 17:07:31;;;;;;;3.88;1.50;;;13.60;56.40;;;;;;21035721;28;20036;-50
2023/12/24 17:17:33;;;;;;;3.40;1.73;;;13.30;58.80;;;;;;20991555;28;20064;-51
2023/12/24 17:27:35;;;;;;;4.00;1.83;;;11.70;62.90;;;;;;20976111;28;20057;-51
2023/12/24 17:37:37;;;;;;;3.58;1.50;;;10.30;65.80;;;;;;20982673;28;20032;-50
2023/12/24 17:47:39;;;;;;;6.50;3.03;;;11.00;64.70;;;;;;20729725;28;20065;-59
2023/12/24 17:57:41;;;;;;;3.65;1.70;;;9.60;69.50;;;;;;20728455;28;20115;-51
2023/12/24 18:07:43;;;;;;;6.45;3.40;;;8.70;70.90;;;;;;20728185;28;20073;-50
2023/12/24 18:17:45;;;;;;;10.43;6.35;;;9.30;70.50;;;;;;20764832;28;20402;-50
2023/12/24 18:27:50;;;;;;;11.52;4.90;;;7.80;78.80;;;;;;20984800;28;20762;-53
2023/12/24 18:37:52;;;;;;;3.40;1.95;;;6.50;82.70;;;;;;20988120;28;20035;-48
2023/12/24 18:47:53;;;;;;;9.68;5.53;;;6.60;79.10;;;;;;21063083;28;20538;-61
2023/12/24 18:57:55;;;;;;;4.32;2.42;;;6.40;85.80;;;;;;21026273;28;20032;-61
2023/12/24 19:07:57;;;;;;;10.70;4.40;;;6.40;82.00;;;;;;20985804;28;20036;-50
2023/12/24 19:17:59;;;;;;;6.30;3.78;;;6.80;83.20;;;;;;21024145;28;20036;-61
2023/12/24 19:28:01;;;;;;;8.25;4.15;;;6.50;83.90;;;;;;21035603;28;20102;-60
2023/12/24 19:38:09;;;;;;;10.18;4.93;;;6.00;85.10;;;;;;21051884;28;20034;-61
2023/12/24 19:48:10;;;;;;;9.63;4.43;;;5.60;87.60;;;;;;21057165;28;20032;-61
2023/12/24 19:58:13;;;;;;;6.32;3.38;;;5.30;89.50;;;;;;21050470;28;20040;-59
2023/12/24 20:08:15;;;;;;;6.95;3.33;;;5.30;88.70;;;;;;21032249;28;20136;-61
2023/12/24 20:18:17;;;;;;;6.13;3.08;;;5.40;87.30;;;;;;21053966;28;20092;-61
2023/12/24 20:28:19;;;;;;;4.07;2.17;;;5.20;86.60;;;;;;20997017;28;20053;-50
2023/12/24 20:38:20;;;;;;;4.55;1.45;;;5.10;86.40;;;;;;20986511;28;20081;-61
2023/12/24 20:48:26;;;;;;;2.67;1.10;;;5.20;85.30;;;;;;21055713;28;20028;-48
2023/12/24 20:58:27;;;;;;;1.50;0.70;;;5.10;83.60;;;;;;21016162;28;20116;-56
2023/12/24 21:08:29;;;;;;;1.23;0.45;;;5.10;82.40;;;;;;21006666;28;20032;-53
2023/12/24 21:18:31;;;;;;;1.25;0.47;;;5.10;83.10;;;;;;21029125;28;20100;-45
2023/12/24 21:28:33;;;;;;;1.15;0.47;;;5.60;79.10;;;;;;21050534;28;20101;-52
2023/12/24 21:38:34;;;;;;;0.90;0.38;;;5.60;80.10;;;;;;21050221;28;20029;-53
2023/12/24 21:48:36;;;;;;;0.50;0.20;;;5.80;79.70;;;;;;21038451;28;20085;-57
2023/12/24 21:58:38;;;;;;;0.70;0.17;;;5.70;81.50;;;;;;21059495;28;20028;-61
2023/12/24 22:08:43;;;;;;;0.60;0.15;;;5.60;82.30;;;;;;21033495;28;20094;-49
2023/12/24 22:18:45;;;;;;;0.30;0.20;;;5.60;81.70;;;;;;21033299;28;20062;-56
2023/12/24 22:28:49;;;;;;;0.28;0.20;;;5.30;83.00;;;;;;21012796;28;20132;-61
2023/12/24 22:38:51;;;;;;;0.40;0.20;;;5.60;81.00;;;;;;21043873;28;20105;-51
2023/12/24 22:48:56;;;;;;;1.67;0.30;;;5.70;79.40;;;;;;21061731;28;20032;-51
2023/12/24 22:58:57;;;;;;;0.55;0.30;;;5.60;80.60;;;;;;21032950;28;20028;-58
2023/12/24 23:08:59;;;;;;;0.40;0.20;;;5.10;80.90;;;;;;20993808;28;20378;-45
2023/12/24 23:19:01;;;;;;;0.65;0.20;;;5.00;81.30;;;;;;21022449;28;20381;-59
2023/12/24 23:29:03;;;;;;;1.23;0.22;;;5.20;83.70;;;;;;21032994;28;20048;-59
2023/12/24 23:39:04;;;;;;;1.13;0.40;;;5.20;85.40;;;;;;21032641;28;20047;-59
2023/12/24 23:49:06;;;;;;;0.80;0.20;;;5.40;83.30;;;;;;21000206;28;20129;-59
2023/12/24 23:59:09;;;;;;;0.65;0.30;;;5.10;84.90;;;;;;21031380;28;20028;-59
